Aeroporto :
LOGIN :

Iscrizione | Disclaimer

   EN    FR    IT 

 










Sommario :    VFR   VFR Marginale   IFR   IFR Intensivo   IFR Molto Intensivo
Visibilità : 
Base nubi : 
>= 8 km
>= 3000ft
5 / 8 km
1000 / 3000 ft
1500m / 5 km
500 / 1000 ft
800 / 1500m
200 / 500 ft
< 800m
< 200 ft
Simboli :   Temporali  Nebbia  Neve Forte  Precipitazioni Forti  Vento > 20 kt
SIGMETs :   Varie  Temporali  Ghiacco  Turbolenza  Onda orograficha  Ceneri Vulcaniche







- Altitudine del aeroporto : 650 ft
- Codice IATA : ZJI


LSZL - Locarno

ULTIMO METAR :
  • 230850Z 00000KT 9999 BKN065 22/18 Q1023 RMK BLU

METARs OBSOLETI :
  • 230820Z VRB01KT 9999 BKN065 21/18 Q1023 RMK BLU
  • 230750Z VRB01KT 9999 BKN070 20/20 Q1023 RMK BLU
  • 230720Z VRB01KT 9999 FEW070 21/18 Q1023 RMK BLU+
  • 230650Z 00000KT 9999 BKN077 BKN088 20/18 Q1023 RMK BLU
  • 230620Z 00000KT 9999 SCT075 18/18 Q1023 RMK BLU+

TAF TAF LSZL
Valido dal 23 a 06 ore il 23 a 15 ore UTC


230525Z 2306/2315 VRB03KT 9999 FEW090
PROB40
TEMPO 2306/2308 SHRA FEW060TCU
Nessun NOTAM noto per questo aeroporto.



MetMap, La meteo Aeronautica in un colpo d'occhio ! - Copyright ORBIFLY Dicembre 2007 - Disclaimer

ORBIFLY MET'MAP TEAM :

Programmazione e sviluppo : Alexandra Zaïnal
Concezione e sviluppo : Baudouin d'Aumeries
Co-Programmazione e sviluppo : Marc-Olivier Méhu
Supporto tecnico e logistico : Manuel Goepfert
Aiuto per la traduzione : Arnaldo La Scala

Contatto : metmap@orbifly.com




FONTI E CREDITI :

   NOAA